sensor_id;sensor_type;location;lat;lon;timestamp;pressure;altitude;pressure_sealevel;temperature;humidity
45991;BME280;31721;41.740;-88.000;2023-02-21T00:00:43;97765.90;;;8.53;33.02
45991;BME280;31721;41.740;-88.000;2023-02-21T00:03:11;97763.49;;;8.45;32.92
45991;BME280;31721;41.740;-88.000;2023-02-21T00:05:38;97765.83;;;8.39;33.06
45991;BME280;31721;41.740;-88.000;2023-02-21T00:08:06;97771.04;;;8.44;33.20
45991;BME280;31721;41.740;-88.000;2023-02-21T00:10:34;97775.98;;;8.31;33.31
45991;BME280;31721;41.740;-88.000;2023-02-21T00:13:02;97776.44;;;8.20;33.47
45991;BME280;31721;41.740;-88.000;2023-02-21T00:15:30;97777.66;;;8.16;33.59
45991;BME280;31721;41.740;-88.000;2023-02-21T00:17:58;97781.80;;;8.12;33.68
45991;BME280;31721;41.740;-88.000;2023-02-21T00:20:26;97781.91;;;8.16;33.70
45991;BME280;31721;41.740;-88.000;2023-02-21T00:22:54;97779.02;;;8.04;33.94
45991;BME280;31721;41.740;-88.000;2023-02-21T00:25:22;97775.17;;;8.08;34.04
45991;BME280;31721;41.740;-88.000;2023-02-21T00:27:50;97768.86;;;8.01;34.24
45991;BME280;31721;41.740;-88.000;2023-02-21T00:30:18;97769.53;;;7.88;34.25
45991;BME280;31721;41.740;-88.000;2023-02-21T00:32:46;97768.59;;;7.93;34.33
45991;BME280;31721;41.740;-88.000;2023-02-21T00:35:14;97772.59;;;7.97;34.47
45991;BME280;31721;41.740;-88.000;2023-02-21T00:37:42;97772.90;;;7.91;34.43
45991;BME280;31721;41.740;-88.000;2023-02-21T00:40:12;97772.96;;;7.89;34.52
45991;BME280;31721;41.740;-88.000;2023-02-21T00:42:40;97770.18;;;7.82;34.71
45991;BME280;31721;41.740;-88.000;2023-02-21T00:45:12;97770.47;;;7.81;34.70
45991;BME280;31721;41.740;-88.000;2023-02-21T00:47:40;97768.36;;;7.68;34.85
45991;BME280;31721;41.740;-88.000;2023-02-21T00:50:08;97756.53;;;7.63;35.02
45991;BME280;31721;41.740;-88.000;2023-02-21T00:52:35;97751.15;;;7.54;35.08
45991;BME280;31721;41.740;-88.000;2023-02-21T00:55:04;97753.73;;;7.45;35.15
45991;BME280;31721;41.740;-88.000;2023-02-21T00:57:32;97756.04;;;7.45;35.28
45991;BME280;31721;41.740;-88.000;2023-02-21T01:00:00;97751.18;;;7.49;35.38
45991;BME280;31721;41.740;-88.000;2023-02-21T01:02:28;97743.99;;;7.38;35.41
45991;BME280;31721;41.740;-88.000;2023-02-21T01:04:56;97742.31;;;7.31;35.43
45991;BME280;31721;41.740;-88.000;2023-02-21T01:07:24;97745.16;;;7.36;35.77
45991;BME280;31721;41.740;-88.000;2023-02-21T01:09:51;97748.99;;;7.32;35.91
45991;BME280;31721;41.740;-88.000;2023-02-21T01:12:19;97755.45;;;7.22;36.37
45991;BME280;31721;41.740;-88.000;2023-02-21T01:14:47;97749.63;;;7.30;36.64
45991;BME280;31721;41.740;-88.000;2023-02-21T01:17:15;97746.13;;;7.17;36.33
45991;BME280;31721;41.740;-88.000;2023-02-21T01:19:43;97735.38;;;7.01;36.62
45991;BME280;31721;41.740;-88.000;2023-02-21T01:22:11;97739.26;;;7.10;36.80
45991;BME280;31721;41.740;-88.000;2023-02-21T01:24:38;97750.65;;;7.02;36.73
45991;BME280;31721;41.740;-88.000;2023-02-21T01:27:06;97751.65;;;7.08;37.32
45991;BME280;31721;41.740;-88.000;2023-02-21T01:29:34;97753.51;;;6.99;37.00
45991;BME280;31721;41.740;-88.000;2023-02-21T01:32:03;97747.72;;;7.00;36.85
45991;BME280;31721;41.740;-88.000;2023-02-21T01:34:31;97754.55;;;7.09;37.11
45991;BME280;31721;41.740;-88.000;2023-02-21T01:36:58;97752.96;;;7.15;37.31
45991;BME280;31721;41.740;-88.000;2023-02-21T01:39:26;97753.05;;;6.99;37.28
45991;BME280;31721;41.740;-88.000;2023-02-21T01:41:54;97752.86;;;7.11;37.40
45991;BME280;31721;41.740;-88.000;2023-02-21T01:44:40;97749.65;;;7.00;37.66
45991;BME280;31721;41.740;-88.000;2023-02-21T01:47:10;97747.83;;;7.08;37.66
45991;BME280;31721;41.740;-88.000;2023-02-21T01:49:40;97746.72;;;7.11;37.78
45991;BME280;31721;41.740;-88.000;2023-02-21T01:52:08;97745.50;;;7.04;38.08
45991;BME280;31721;41.740;-88.000;2023-02-21T01:54:40;97744.06;;;6.93;38.04
45991;BME280;31721;41.740;-88.000;2023-02-21T01:57:09;97743.74;;;6.89;37.99
45991;BME280;31721;41.740;-88.000;2023-02-21T01:59:37;97745.02;;;6.92;38.07
45991;BME280;31721;41.740;-88.000;2023-02-21T02:02:10;97744.89;;;6.96;38.05
45991;BME280;31721;41.740;-88.000;2023-02-21T02:04:40;97747.49;;;6.95;37.96
45991;BME280;31721;41.740;-88.000;2023-02-21T02:07:09;97748.07;;;7.12;38.36
45991;BME280;31721;41.740;-88.000;2023-02-21T02:09:37;97748.89;;;7.01;38.21
45991;BME280;31721;41.740;-88.000;2023-02-21T02:12:20;97750.54;;;7.38;38.12
45991;BME280;31721;41.740;-88.000;2023-02-21T02:15:07;97749.76;;;7.36;37.86
45991;BME280;31721;41.740;-88.000;2023-02-21T02:17:50;97747.29;;;7.34;38.21
45991;BME280;31721;41.740;-88.000;2023-02-21T02:20:46;97745.48;;;7.47;38.40
45991;BME280;31721;41.740;-88.000;2023-02-21T02:24:27;97741.38;;;7.16;38.63
45991;BME280;31721;41.740;-88.000;2023-02-21T02:27:19;97737.84;;;7.14;38.58
45991;BME280;31721;41.740;-88.000;2023-02-21T02:30:08;97733.89;;;7.18;38.62
45991;BME280;31721;41.740;-88.000;2023-02-21T02:32:57;97732.79;;;7.03;38.88
45991;BME280;31721;41.740;-88.000;2023-02-21T02:35:32;97733.66;;;6.98;38.48
45991;BME280;31721;41.740;-88.000;2023-02-21T02:38:07;97726.19;;;6.96;39.12
45991;BME280;31721;41.740;-88.000;2023-02-21T02:40:45;97728.45;;;6.99;39.33
45991;BME280;31721;41.740;-88.000;2023-02-21T02:43:24;97727.01;;;6.87;39.36
45991;BME280;31721;41.740;-88.000;2023-02-21T02:45:57;97727.05;;;6.72;39.59
45991;BME280;31721;41.740;-88.000;2023-02-21T02:48:28;97727.46;;;6.80;40.04
45991;BME280;31721;41.740;-88.000;2023-02-21T02:50:57;97726.74;;;6.62;39.81
45991;BME280;31721;41.740;-88.000;2023-02-21T02:53:29;97721.86;;;6.60;40.06
45991;BME280;31721;41.740;-88.000;2023-02-21T02:55:59;97714.19;;;6.68;40.37
45991;BME280;31721;41.740;-88.000;2023-02-21T02:58:30;97713.05;;;6.68;40.53
45991;BME280;31721;41.740;-88.000;2023-02-21T03:01:12;97706.43;;;6.46;40.17
45991;BME280;31721;41.740;-88.000;2023-02-21T03:03:54;97702.18;;;6.81;40.87
45991;BME280;31721;41.740;-88.000;2023-02-21T03:06:30;97694.89;;;6.46;40.88
45991;BME280;31721;41.740;-88.000;2023-02-21T03:09:07;97693.09;;;6.67;41.17
45991;BME280;31721;41.740;-88.000;2023-02-21T03:11:39;97689.45;;;6.49;41.24
45991;BME280;31721;41.740;-88.000;2023-02-21T03:14:14;97684.14;;;6.60;41.40
45991;BME280;31721;41.740;-88.000;2023-02-21T03:16:44;97681.53;;;6.63;41.46
45991;BME280;31721;41.740;-88.000;2023-02-21T03:19:17;97681.05;;;6.44;41.72
45991;BME280;31721;41.740;-88.000;2023-02-21T03:21:49;97685.21;;;6.55;41.78
45991;BME280;31721;41.740;-88.000;2023-02-21T03:24:20;97689.57;;;6.45;41.51
45991;BME280;31721;41.740;-88.000;2023-02-21T03:26:53;97697.82;;;6.53;42.05
45991;BME280;31721;41.740;-88.000;2023-02-21T03:29:23;97696.84;;;6.45;42.14
45991;BME280;31721;41.740;-88.000;2023-02-21T03:31:57;97695.71;;;6.40;42.23
45991;BME280;31721;41.740;-88.000;2023-02-21T03:34:27;97697.56;;;6.38;42.40
45991;BME280;31721;41.740;-88.000;2023-02-21T03:36:55;97699.48;;;6.23;42.58
45991;BME280;31721;41.740;-88.000;2023-02-21T03:39:23;97698.82;;;6.14;42.79
45991;BME280;31721;41.740;-88.000;2023-02-21T03:41:51;97695.48;;;6.06;42.97
45991;BME280;31721;41.740;-88.000;2023-02-21T03:44:19;97693.07;;;6.10;43.06
45991;BME280;31721;41.740;-88.000;2023-02-21T03:46:46;97686.38;;;6.07;43.22
45991;BME280;31721;41.740;-88.000;2023-02-21T03:49:14;97687.40;;;6.04;43.29
45991;BME280;31721;41.740;-88.000;2023-02-21T03:51:42;97683.40;;;5.85;44.52
45991;BME280;31721;41.740;-88.000;2023-02-21T03:54:10;97681.59;;;5.83;43.76
45991;BME280;31721;41.740;-88.000;2023-02-21T03:56:38;97674.57;;;5.81;43.70
45991;BME280;31721;41.740;-88.000;2023-02-21T03:59:06;97667.97;;;5.68;43.74
45991;BME280;31721;41.740;-88.000;2023-02-21T04:01:34;97663.15;;;5.75;43.86
45991;BME280;31721;41.740;-88.000;2023-02-21T04:04:02;97659.55;;;5.55;43.87
45991;BME280;31721;41.740;-88.000;2023-02-21T04:06:29;97658.03;;;5.71;44.53
45991;BME280;31721;41.740;-88.000;2023-02-21T04:08:57;97657.75;;;5.57;44.26
45991;BME280;31721;41.740;-88.000;2023-02-21T04:11:25;97658.53;;;5.46;44.34
45991;BME280;31721;41.740;-88.000;2023-02-21T04:13:52;97653.82;;;5.54;44.56
45991;BME280;31721;41.740;-88.000;2023-02-21T04:16:21;97654.29;;;5.31;44.52
45991;BME280;31721;41.740;-88.000;2023-02-21T04:18:49;97655.04;;;5.35;44.51
45991;BME280;31721;41.740;-88.000;2023-02-21T04:21:17;97656.33;;;5.36;44.61
45991;BME280;31721;41.740;-88.000;2023-02-21T04:23:45;97650.47;;;5.26;44.80
45991;BME280;31721;41.740;-88.000;2023-02-21T04:26:13;97649.77;;;5.48;45.18
45991;BME280;31721;41.740;-88.000;2023-02-21T04:28:40;97646.46;;;5.39;45.07
45991;BME280;31721;41.740;-88.000;2023-02-21T04:31:08;97640.74;;;5.26;45.30
45991;BME280;31721;41.740;-88.000;2023-02-21T04:33:36;97635.65;;;5.30;45.53
45991;BME280;31721;41.740;-88.000;2023-02-21T04:36:04;97631.22;;;5.24;45.17
45991;BME280;31721;41.740;-88.000;2023-02-21T04:38:33;97626.70;;;5.19;45.49
45991;BME280;31721;41.740;-88.000;2023-02-21T04:41:00;97625.08;;;5.20;45.35
45991;BME280;31721;41.740;-88.000;2023-02-21T04:43:28;97620.20;;;5.07;45.63
45991;BME280;31721;41.740;-88.000;2023-02-21T04:45:56;97619.15;;;4.96;45.78
45991;BME280;31721;41.740;-88.000;2023-02-21T04:48:24;97619.26;;;4.98;45.76
45991;BME280;31721;41.740;-88.000;2023-02-21T04:50:51;97620.24;;;4.87;45.59
45991;BME280;31721;41.740;-88.000;2023-02-21T04:53:19;97615.70;;;4.92;45.92
45991;BME280;31721;41.740;-88.000;2023-02-21T04:55:47;97611.05;;;4.87;46.23
45991;BME280;31721;41.740;-88.000;2023-02-21T04:58:15;97609.01;;;4.99;46.08
45991;BME280;31721;41.740;-88.000;2023-02-21T05:00:43;97607.78;;;5.14;46.49
45991;BME280;31721;41.740;-88.000;2023-02-21T05:03:11;97606.00;;;4.97;46.48
45991;BME280;31721;41.740;-88.000;2023-02-21T05:05:38;97608.59;;;5.03;46.48
45991;BME280;31721;41.740;-88.000;2023-02-21T05:08:06;97608.10;;;4.94;46.71
45991;BME280;31721;41.740;-88.000;2023-02-21T05:10:35;97607.72;;;4.91;46.55
45991;BME280;31721;41.740;-88.000;2023-02-21T05:13:02;97606.55;;;4.98;47.01
45991;BME280;31721;41.740;-88.000;2023-02-21T05:15:30;97601.79;;;4.90;46.58
45991;BME280;31721;41.740;-88.000;2023-02-21T05:17:58;97597.27;;;4.85;47.20
45991;BME280;31721;41.740;-88.000;2023-02-21T05:20:25;97598.11;;;4.87;46.77
45991;BME280;31721;41.740;-88.000;2023-02-21T05:22:54;97594.69;;;4.96;47.06
45991;BME280;31721;41.740;-88.000;2023-02-21T05:25:22;97587.46;;;4.94;47.02
45991;BME280;31721;41.740;-88.000;2023-02-21T05:27:52;97577.67;;;4.94;46.98
45991;BME280;31721;41.740;-88.000;2023-02-21T05:30:21;97576.09;;;4.81;46.72
45991;BME280;31721;41.740;-88.000;2023-02-21T05:32:49;97573.78;;;4.62;47.15
45991;BME280;31721;41.740;-88.000;2023-02-21T05:35:18;97559.75;;;4.57;48.33
45991;BME280;31721;41.740;-88.000;2023-02-21T05:37:46;97554.52;;;4.85;47.88
45991;BME280;31721;41.740;-88.000;2023-02-21T05:40:15;97552.37;;;4.81;47.73
45991;BME280;31721;41.740;-88.000;2023-02-21T05:42:43;97552.22;;;5.05;47.92
45991;BME280;31721;41.740;-88.000;2023-02-21T05:45:11;97549.89;;;5.36;47.76
45991;BME280;31721;41.740;-88.000;2023-02-21T05:47:39;97548.06;;;5.30;47.57
45991;BME280;31721;41.740;-88.000;2023-02-21T05:50:07;97550.10;;;5.28;47.48
45991;BME280;31721;41.740;-88.000;2023-02-21T05:52:35;97545.47;;;5.31;47.42
45991;BME280;31721;41.740;-88.000;2023-02-21T05:55:02;97534.51;;;5.35;47.65
45991;BME280;31721;41.740;-88.000;2023-02-21T05:57:31;97532.11;;;5.15;47.28
45991;BME280;31721;41.740;-88.000;2023-02-21T06:00:04;97530.68;;;5.16;47.24
45991;BME280;31721;41.740;-88.000;2023-02-21T06:02:32;97528.35;;;5.23;47.58
45991;BME280;31721;41.740;-88.000;2023-02-21T06:04:59;97525.89;;;5.04;47.27
45991;BME280;31721;41.740;-88.000;2023-02-21T06:07:27;97522.92;;;4.95;47.24
45991;BME280;31721;41.740;-88.000;2023-02-21T06:09:54;97528.06;;;5.12;48.16
45991;BME280;31721;41.740;-88.000;2023-02-21T06:12:22;97532.90;;;5.04;47.78
45991;BME280;31721;41.740;-88.000;2023-02-21T06:14:49;97529.65;;;5.15;48.18
45991;BME280;31721;41.740;-88.000;2023-02-21T06:17:17;97526.62;;;4.97;48.63
45991;BME280;31721;41.740;-88.000;2023-02-21T06:19:45;97523.69;;;4.91;48.79
45991;BME280;31721;41.740;-88.000;2023-02-21T06:22:12;97525.55;;;5.18;49.03
45991;BME280;31721;41.740;-88.000;2023-02-21T06:24:40;97531.41;;;5.27;48.71
45991;BME280;31721;41.740;-88.000;2023-02-21T06:27:07;97534.61;;;4.87;48.74
45991;BME280;31721;41.740;-88.000;2023-02-21T06:29:35;97536.09;;;4.98;48.69
45991;BME280;31721;41.740;-88.000;2023-02-21T06:32:03;97528.46;;;5.18;48.96
45991;BME280;31721;41.740;-88.000;2023-02-21T06:34:32;97531.72;;;5.21;49.19
45991;BME280;31721;41.740;-88.000;2023-02-21T06:37:00;97531.78;;;5.18;49.09
45991;BME280;31721;41.740;-88.000;2023-02-21T06:39:28;97527.99;;;5.17;49.27
45991;BME280;31721;41.740;-88.000;2023-02-21T06:41:55;97530.58;;;5.16;49.19
45991;BME280;31721;41.740;-88.000;2023-02-21T06:44:23;97533.73;;;5.21;49.55
45991;BME280;31721;41.740;-88.000;2023-02-21T06:46:50;97531.64;;;5.08;49.82
45991;BME280;31721;41.740;-88.000;2023-02-21T06:49:18;97539.23;;;4.87;49.59
45991;BME280;31721;41.740;-88.000;2023-02-21T06:51:45;97532.27;;;4.97;50.01
45991;BME280;31721;41.740;-88.000;2023-02-21T06:54:13;97521.58;;;4.83;49.81
45991;BME280;31721;41.740;-88.000;2023-02-21T06:56:41;97517.63;;;4.75;50.06
45991;BME280;31721;41.740;-88.000;2023-02-21T06:59:08;97522.83;;;4.50;50.29
45991;BME280;31721;41.740;-88.000;2023-02-21T07:01:36;97513.04;;;4.66;50.68
45991;BME280;31721;41.740;-88.000;2023-02-21T07:04:03;97511.11;;;4.58;50.74
45991;BME280;31721;41.740;-88.000;2023-02-21T07:06:31;97509.29;;;4.64;50.72
45991;BME280;31721;41.740;-88.000;2023-02-21T07:08:59;97505.26;;;4.52;51.34
45991;BME280;31721;41.740;-88.000;2023-02-21T07:11:27;97519.87;;;4.39;50.94
45991;BME280;31721;41.740;-88.000;2023-02-21T07:13:57;97519.10;;;4.20;50.44
45991;BME280;31721;41.740;-88.000;2023-02-21T07:16:25;97519.94;;;4.34;51.35
45991;BME280;31721;41.740;-88.000;2023-02-21T07:18:54;97517.61;;;4.42;51.29
45991;BME280;31721;41.740;-88.000;2023-02-21T07:21:22;97530.42;;;4.37;51.41
45991;BME280;31721;41.740;-88.000;2023-02-21T07:23:50;97533.52;;;4.09;52.12
45991;BME280;31721;41.740;-88.000;2023-02-21T07:26:17;97533.19;;;3.99;51.80
45991;BME280;31721;41.740;-88.000;2023-02-21T07:28:47;97538.92;;;3.85;52.07
45991;BME280;31721;41.740;-88.000;2023-02-21T07:31:15;97532.46;;;4.03;52.21
45991;BME280;31721;41.740;-88.000;2023-02-21T07:33:43;97534.46;;;3.74;52.68
45991;BME280;31721;41.740;-88.000;2023-02-21T07:36:11;97522.80;;;3.75;52.71
45991;BME280;31721;41.740;-88.000;2023-02-21T07:38:38;97532.13;;;4.11;52.58
45991;BME280;31721;41.740;-88.000;2023-02-21T07:41:06;97527.00;;;3.89;52.47
45991;BME280;31721;41.740;-88.000;2023-02-21T07:43:34;97531.21;;;4.11;52.22
45991;BME280;31721;41.740;-88.000;2023-02-21T07:46:01;97534.92;;;3.96;52.17
45991;BME280;31721;41.740;-88.000;2023-02-21T07:48:29;97544.77;;;4.51;51.99
45991;BME280;31721;41.740;-88.000;2023-02-21T07:50:57;97540.89;;;4.42;51.74
45991;BME280;31721;41.740;-88.000;2023-02-21T07:53:24;97541.38;;;4.22;51.65
45991;BME280;31721;41.740;-88.000;2023-02-21T07:55:51;97537.72;;;4.51;52.24
45991;BME280;31721;41.740;-88.000;2023-02-21T07:58:19;97538.64;;;4.14;52.21
45991;BME280;31721;41.740;-88.000;2023-02-21T08:00:47;97539.50;;;4.03;51.84
45991;BME280;31721;41.740;-88.000;2023-02-21T08:03:15;97539.37;;;3.80;52.12
45991;BME280;31721;41.740;-88.000;2023-02-21T08:05:43;97540.83;;;3.64;52.72
45991;BME280;31721;41.740;-88.000;2023-02-21T08:08:11;97553.85;;;3.53;52.76
45991;BME280;31721;41.740;-88.000;2023-02-21T08:10:38;97546.69;;;3.69;52.42
45991;BME280;31721;41.740;-88.000;2023-02-21T08:13:06;97553.18;;;3.11;53.41
45991;BME280;31721;41.740;-88.000;2023-02-21T08:15:34;97555.65;;;3.35;52.45
45991;BME280;31721;41.740;-88.000;2023-02-21T08:18:02;97556.59;;;3.36;52.06
45991;BME280;31721;41.740;-88.000;2023-02-21T08:20:30;97552.98;;;3.33;52.88
45991;BME280;31721;41.740;-88.000;2023-02-21T08:22:58;97556.21;;;3.35;52.68
45991;BME280;31721;41.740;-88.000;2023-02-21T08:25:26;97559.98;;;3.27;52.79
45991;BME280;31721;41.740;-88.000;2023-02-21T08:27:53;97567.26;;;3.30;52.56
45991;BME280;31721;41.740;-88.000;2023-02-21T08:30:21;97570.82;;;3.47;52.24
45991;BME280;31721;41.740;-88.000;2023-02-21T08:32:49;97567.11;;;3.76;51.97
45991;BME280;31721;41.740;-88.000;2023-02-21T08:35:18;97563.83;;;3.33;52.04
45991;BME280;31721;41.740;-88.000;2023-02-21T08:37:46;97571.51;;;3.35;51.74
45991;BME280;31721;41.740;-88.000;2023-02-21T08:40:17;97565.47;;;3.12;52.13
45991;BME280;31721;41.740;-88.000;2023-02-21T08:42:48;97565.81;;;3.16;51.97
45991;BME280;31721;41.740;-88.000;2023-02-21T08:45:18;97566.86;;;3.61;51.34
45991;BME280;31721;41.740;-88.000;2023-02-21T08:47:46;97569.53;;;3.43;50.99
45991;BME280;31721;41.740;-88.000;2023-02-21T08:52:54;97576.23;;;3.02;50.66
45991;BME280;31721;41.740;-88.000;2023-02-21T08:55:23;97579.95;;;3.12;50.71
45991;BME280;31721;41.740;-88.000;2023-02-21T08:57:52;97582.67;;;2.45;50.91
45991;BME280;31721;41.740;-88.000;2023-02-21T09:00:22;97588.61;;;2.75;50.47
45991;BME280;31721;41.740;-88.000;2023-02-21T09:02:51;97591.96;;;2.50;50.18
45991;BME280;31721;41.740;-88.000;2023-02-21T09:05:21;97603.29;;;2.36;49.91
45991;BME280;31721;41.740;-88.000;2023-02-21T09:07:50;97590.85;;;2.39;49.70
45991;BME280;31721;41.740;-88.000;2023-02-21T09:10:18;97591.54;;;2.53;49.78
45991;BME280;31721;41.740;-88.000;2023-02-21T09:12:45;97585.76;;;2.60;49.00
45991;BME280;31721;41.740;-88.000;2023-02-21T09:15:14;97581.28;;;2.27;49.31
45991;BME280;31721;41.740;-88.000;2023-02-21T09:17:42;97579.16;;;2.27;49.51
45991;BME280;31721;41.740;-88.000;2023-02-21T09:20:15;97580.73;;;1.94;49.73
45991;BME280;31721;41.740;-88.000;2023-02-21T09:22:44;97586.51;;;1.75;49.81
45991;BME280;31721;41.740;-88.000;2023-02-21T09:25:12;97578.17;;;1.33;50.25
45991;BME280;31721;41.740;-88.000;2023-02-21T09:27:41;97589.26;;;1.52;49.84
45991;BME280;31721;41.740;-88.000;2023-02-21T09:30:16;97593.19;;;1.78;49.42
45991;BME280;31721;41.740;-88.000;2023-02-21T09:32:44;97601.12;;;2.03;49.11
45991;BME280;31721;41.740;-88.000;2023-02-21T09:35:13;97603.08;;;1.71;49.40
45991;BME280;31721;41.740;-88.000;2023-02-21T09:37:42;97611.58;;;1.66;49.19
45991;BME280;31721;41.740;-88.000;2023-02-21T09:40:16;97614.85;;;1.50;49.41
45991;BME280;31721;41.740;-88.000;2023-02-21T09:42:49;97620.26;;;1.27;49.66
45991;BME280;31721;41.740;-88.000;2023-02-21T09:45:17;97624.44;;;1.35;49.57
45991;BME280;31721;41.740;-88.000;2023-02-21T09:47:50;97615.46;;;1.37;49.48
45991;BME280;31721;41.740;-88.000;2023-02-21T09:50:24;97627.11;;;1.62;48.70
45991;BME280;31721;41.740;-88.000;2023-02-21T09:52:55;97611.45;;;1.55;48.31
45991;BME280;31721;41.740;-88.000;2023-02-21T09:55:28;97616.96;;;0.52;49.19
45991;BME280;31721;41.740;-88.000;2023-02-21T09:57:58;97627.85;;;0.63;48.80
45991;BME280;31721;41.740;-88.000;2023-02-21T10:00:32;97605.14;;;0.72;48.73
45991;BME280;31721;41.740;-88.000;2023-02-21T10:03:13;97609.61;;;0.59;48.93
45991;BME280;31721;41.740;-88.000;2023-02-21T10:05:47;97620.13;;;0.47;49.25
45991;BME280;31721;41.740;-88.000;2023-02-21T10:08:24;97624.97;;;0.66;49.25
45991;BME280;31721;41.740;-88.000;2023-02-21T10:10:56;97627.06;;;0.43;49.46
45991;BME280;31721;41.740;-88.000;2023-02-21T10:13:34;97614.58;;;0.75;49.33
45991;BME280;31721;41.740;-88.000;2023-02-21T10:16:08;97615.32;;;0.82;49.03
45991;BME280;31721;41.740;-88.000;2023-02-21T10:18:42;97611.95;;;0.84;49.05
45991;BME280;31721;41.740;-88.000;2023-02-21T10:21:16;97616.84;;;0.55;49.30
45991;BME280;31721;41.740;-88.000;2023-02-21T10:23:50;97628.68;;;0.44;49.11
45991;BME280;31721;41.740;-88.000;2023-02-21T10:26:23;97642.11;;;0.03;49.36
45991;BME280;31721;41.740;-88.000;2023-02-21T10:28:52;97640.27;;;0.01;48.51
45991;BME280;31721;41.740;-88.000;2023-02-21T10:31:26;97636.58;;;0.28;47.96
45991;BME280;31721;41.740;-88.000;2023-02-21T10:33:56;97634.50;;;-0.04;48.45
45991;BME280;31721;41.740;-88.000;2023-02-21T10:36:23;97650.57;;;-0.15;48.96
45991;BME280;31721;41.740;-88.000;2023-02-21T10:38:55;97656.61;;;-0.05;48.50
45991;BME280;31721;41.740;-88.000;2023-02-21T10:41:28;97663.22;;;-0.82;47.88
45991;BME280;31721;41.740;-88.000;2023-02-21T10:44:00;97658.51;;;-0.10;45.79
45991;BME280;31721;41.740;-88.000;2023-02-21T10:46:34;97658.18;;;-0.76;45.32
45991;BME280;31721;41.740;-88.000;2023-02-21T10:49:22;97660.84;;;-0.89;46.77
45991;BME280;31721;41.740;-88.000;2023-02-21T10:52:05;97672.61;;;-0.51;46.87
45991;BME280;31721;41.740;-88.000;2023-02-21T10:54:32;97683.40;;;-0.62;46.92
45991;BME280;31721;41.740;-88.000;2023-02-21T10:57:03;97700.55;;;-0.77;47.00
45991;BME280;31721;41.740;-88.000;2023-02-21T10:59:32;97696.87;;;-0.23;46.09
45991;BME280;31721;41.740;-88.000;2023-02-21T11:02:02;97700.40;;;-1.19;46.80
45991;BME280;31721;41.740;-88.000;2023-02-21T11:04:31;97700.75;;;-0.60;47.13
45991;BME280;31721;41.740;-88.000;2023-02-21T11:07:03;97709.06;;;-0.90;47.17
45991;BME280;31721;41.740;-88.000;2023-02-21T11:09:35;97724.64;;;-0.50;46.59
45991;BME280;31721;41.740;-88.000;2023-02-21T11:12:15;97734.17;;;-0.51;47.23
45991;BME280;31721;41.740;-88.000;2023-02-21T11:15:01;97745.05;;;-0.37;46.77
45991;BME280;31721;41.740;-88.000;2023-02-21T11:17:30;97756.66;;;-0.61;46.34
45991;BME280;31721;41.740;-88.000;2023-02-21T11:20:04;97759.16;;;-0.63;46.62
45991;BME280;31721;41.740;-88.000;2023-02-21T11:22:43;97754.78;;;-0.81;46.62
45991;BME280;31721;41.740;-88.000;2023-02-21T11:25:20;97768.37;;;-0.54;45.78
45991;BME280;31721;41.740;-88.000;2023-02-21T11:28:06;97782.64;;;-0.82;46.58
45991;BME280;31721;41.740;-88.000;2023-02-21T11:30:49;97786.51;;;-0.91;46.42
45991;BME280;31721;41.740;-88.000;2023-02-21T11:33:20;97813.67;;;-0.98;46.67
45991;BME280;31721;41.740;-88.000;2023-02-21T11:35:50;97803.12;;;-1.32;46.63
45991;BME280;31721;41.740;-88.000;2023-02-21T11:38:36;97807.31;;;-1.39;47.13
45991;BME280;31721;41.740;-88.000;2023-02-21T11:41:16;97808.08;;;-1.51;46.70
45991;BME280;31721;41.740;-88.000;2023-02-21T11:43:46;97804.77;;;-1.70;47.35
45991;BME280;31721;41.740;-88.000;2023-02-21T11:46:20;97806.93;;;-1.32;47.05
45991;BME280;31721;41.740;-88.000;2023-02-21T11:48:57;97805.80;;;-1.67;44.79
45991;BME280;31721;41.740;-88.000;2023-02-21T11:51:32;97826.55;;;-2.03;45.61
45991;BME280;31721;41.740;-88.000;2023-02-21T11:54:00;97824.49;;;-1.88;45.10
45991;BME280;31721;41.740;-88.000;2023-02-21T11:56:34;97842.15;;;-2.28;44.92
45991;BME280;31721;41.740;-88.000;2023-02-21T11:59:15;97832.87;;;-2.22;44.38
45991;BME280;31721;41.740;-88.000;2023-02-21T12:01:52;97841.77;;;-2.54;45.02
45991;BME280;31721;41.740;-88.000;2023-02-21T12:04:35;97858.42;;;-2.18;44.95
45991;BME280;31721;41.740;-88.000;2023-02-21T12:07:14;97860.37;;;-2.24;45.40
45991;BME280;31721;41.740;-88.000;2023-02-21T12:09:48;97851.06;;;-2.10;45.46
45991;BME280;31721;41.740;-88.000;2023-02-21T12:12:31;97851.80;;;-2.16;45.53
45991;BME280;31721;41.740;-88.000;2023-02-21T12:15:06;97859.29;;;-2.06;45.38
45991;BME280;31721;41.740;-88.000;2023-02-21T12:17:50;97874.27;;;-3.19;46.54
45991;BME280;31721;41.740;-88.000;2023-02-21T12:20:35;97890.24;;;-2.57;46.65
45991;BME280;31721;41.740;-88.000;2023-02-21T12:23:14;97904.74;;;-3.08;47.05
45991;BME280;31721;41.740;-88.000;2023-02-21T12:25:57;97904.10;;;-2.78;47.63
45991;BME280;31721;41.740;-88.000;2023-02-21T12:28:35;97924.31;;;-2.97;47.23
45991;BME280;31721;41.740;-88.000;2023-02-21T12:31:21;97938.85;;;-2.74;47.36
45991;BME280;31721;41.740;-88.000;2023-02-21T12:33:59;97937.85;;;-3.20;47.48
45991;BME280;31721;41.740;-88.000;2023-02-21T12:36:42;97940.24;;;-3.20;46.45
45991;BME280;31721;41.740;-88.000;2023-02-21T12:39:25;97963.81;;;-3.77;44.86
45991;BME280;31721;41.740;-88.000;2023-02-21T12:42:11;97958.77;;;-3.85;45.33
45991;BME280;31721;41.740;-88.000;2023-02-21T12:44:53;97978.81;;;-3.85;44.91
45991;BME280;31721;41.740;-88.000;2023-02-21T12:47:28;97976.99;;;-4.42;44.67
45991;BME280;31721;41.740;-88.000;2023-02-21T12:50:01;97985.72;;;-4.26;44.86
45991;BME280;31721;41.740;-88.000;2023-02-21T12:52:35;97974.61;;;-4.27;44.07
45991;BME280;31721;41.740;-88.000;2023-02-21T12:55:11;97986.46;;;-4.01;43.79
45991;BME280;31721;41.740;-88.000;2023-02-21T12:57:50;97987.36;;;-4.18;44.07
45991;BME280;31721;41.740;-88.000;2023-02-21T13:00:22;97990.98;;;-4.51;42.87
45991;BME280;31721;41.740;-88.000;2023-02-21T13:02:57;98010.47;;;-4.40;43.43
45991;BME280;31721;41.740;-88.000;2023-02-21T13:05:35;98017.73;;;-4.82;43.54
45991;BME280;31721;41.740;-88.000;2023-02-21T13:08:10;98020.05;;;-4.73;42.74
45991;BME280;31721;41.740;-88.000;2023-02-21T13:10:49;98031.00;;;-4.99;42.71